createdAt,value
2018-03-04T00:00:44.749Z,0.00
2018-03-04T00:01:44.730Z,0.00
2018-03-04T00:02:44.715Z,0.00
2018-03-04T00:03:44.702Z,0.00
2018-03-04T00:04:44.692Z,0.00
2018-03-04T00:05:44.679Z,0.00
2018-03-04T00:06:44.658Z,0.00
2018-03-04T00:07:44.646Z,0.00
2018-03-04T00:08:44.637Z,0.00
2018-03-04T00:09:44.620Z,0.00
2018-03-04T00:10:44.609Z,0.00
2018-03-04T00:11:44.595Z,0.00
2018-03-04T00:12:44.582Z,0.00
2018-03-04T00:13:44.570Z,0.00
2018-03-04T00:14:44.558Z,0.00
2018-03-04T00:15:44.542Z,0.00
2018-03-04T00:16:44.534Z,0.00
2018-03-04T00:17:44.517Z,0.00
2018-03-04T00:18:44.507Z,0.00
2018-03-04T00:19:44.492Z,0.00
2018-03-04T00:20:44.482Z,0.00
2018-03-04T00:21:44.469Z,0.00
2018-03-04T00:22:44.455Z,0.00
2018-03-04T00:23:44.437Z,0.00
2018-03-04T00:24:44.423Z,0.00
2018-03-04T00:25:44.411Z,0.00
2018-03-04T00:26:44.404Z,0.00
2018-03-04T00:27:44.460Z,0.00
2018-03-04T00:28:44.373Z,0.00
2018-03-04T00:29:44.358Z,0.00
2018-03-04T00:30:44.349Z,0.00
2018-03-04T00:31:44.340Z,0.00
2018-03-04T00:32:44.317Z,0.00
2018-03-04T00:33:44.306Z,0.00
2018-03-04T00:34:44.300Z,0.00
2018-03-04T00:35:44.283Z,0.00
2018-03-04T00:36:44.273Z,0.00
2018-03-04T00:37:44.251Z,0.00
2018-03-04T00:38:44.244Z,0.00
2018-03-04T00:39:44.233Z,0.00
2018-03-04T00:40:44.212Z,0.00
2018-03-04T00:41:44.204Z,0.00
2018-03-04T00:42:44.184Z,0.00
2018-03-04T00:43:44.171Z,0.00
2018-03-04T00:44:44.158Z,0.00
2018-03-04T00:45:44.142Z,0.00
2018-03-04T00:46:44.135Z,0.00
2018-03-04T00:47:44.122Z,0.00
2018-03-04T00:48:44.103Z,0.00
2018-03-04T00:49:44.090Z,0.00
2018-03-04T00:50:44.077Z,0.00
2018-03-04T00:51:44.068Z,0.00
2018-03-04T00:52:44.055Z,0.00
2018-03-04T00:53:44.036Z,0.00
2018-03-04T00:54:44.023Z,0.00
2018-03-04T00:55:44.009Z,0.00
2018-03-04T00:56:43.995Z,0.00
2018-03-04T00:57:43.982Z,0.00
2018-03-04T00:58:43.968Z,0.00
2018-03-04T00:59:43.956Z,0.00
2018-03-04T01:00:43.940Z,0.00
2018-03-04T01:01:43.929Z,0.00
2018-03-04T01:02:43.913Z,0.00
2018-03-04T01:03:43.907Z,0.00
2018-03-04T01:04:43.893Z,0.00
2018-03-04T01:05:43.887Z,0.00
2018-03-04T01:06:43.862Z,0.00
2018-03-04T01:07:43.847Z,0.00
2018-03-04T01:08:43.832Z,0.00
2018-03-04T01:09:43.823Z,0.00
2018-03-04T01:10:43.805Z,0.00
2018-03-04T01:11:43.794Z,0.00
2018-03-04T01:12:43.780Z,0.00
2018-03-04T01:13:43.775Z,0.00
2018-03-04T01:14:43.752Z,0.00
2018-03-04T01:15:43.745Z,0.00
2018-03-04T01:16:43.726Z,0.00
2018-03-04T01:17:43.718Z,0.00
2018-03-04T01:18:43.703Z,0.00
2018-03-04T01:19:43.684Z,0.00
2018-03-04T01:20:43.673Z,0.00
2018-03-04T01:21:43.665Z,0.00
2018-03-04T01:22:43.645Z,0.00
2018-03-04T01:23:43.639Z,0.00
2018-03-04T01:24:43.625Z,0.00
2018-03-04T01:25:43.604Z,0.00
2018-03-04T01:26:43.590Z,0.00
2018-03-04T01:27:43.577Z,0.00
2018-03-04T01:28:43.571Z,0.00
2018-03-04T01:29:43.552Z,0.00
2018-03-04T01:30:43.537Z,0.00
2018-03-04T01:31:43.526Z,0.00
2018-03-04T01:32:43.522Z,0.00
2018-03-04T01:33:43.497Z,0.00
2018-03-04T01:34:43.486Z,0.00
2018-03-04T01:35:43.470Z,0.00
2018-03-04T01:36:43.458Z,0.00
2018-03-04T01:37:43.444Z,0.00
2018-03-04T01:38:43.435Z,0.00
2018-03-04T01:39:43.422Z,0.00
2018-03-04T01:40:43.402Z,0.00
2018-03-04T01:41:43.390Z,0.00
2018-03-04T01:42:43.376Z,0.00
2018-03-04T01:43:43.370Z,0.00
2018-03-04T01:44:43.354Z,0.00
2018-03-04T01:45:43.341Z,0.00
2018-03-04T01:46:43.324Z,0.00
2018-03-04T01:47:43.308Z,0.00
2018-03-04T01:48:43.294Z,0.00
2018-03-04T01:49:43.283Z,0.00
2018-03-04T01:50:43.268Z,0.00
2018-03-04T01:51:43.254Z,0.00
2018-03-04T01:52:43.240Z,0.00
2018-03-04T01:53:43.227Z,0.00
2018-03-04T01:54:43.218Z,0.00
2018-03-04T01:55:43.206Z,0.00
2018-03-04T01:56:43.191Z,0.00
2018-03-04T01:57:43.173Z,0.00
2018-03-04T01:58:43.160Z,0.00
2018-03-04T01:59:43.151Z,0.00
2018-03-04T02:00:43.136Z,0.00
2018-03-04T02:01:43.121Z,0.00
2018-03-04T02:02:43.110Z,0.00
2018-03-04T02:03:43.092Z,0.00
2018-03-04T02:04:43.083Z,0.00
2018-03-04T02:05:43.066Z,0.00
2018-03-04T02:06:43.049Z,0.00
2018-03-04T02:07:43.044Z,0.00
2018-03-04T02:08:43.024Z,0.00
2018-03-04T02:09:43.011Z,0.00
2018-03-04T02:10:42.998Z,0.00
2018-03-04T02:11:42.988Z,0.00
2018-03-04T02:12:42.968Z,0.00
2018-03-04T02:13:42.961Z,0.00
2018-03-04T02:14:42.960Z,0.00
2018-03-04T02:15:42.928Z,0.00
2018-03-04T02:16:42.914Z,0.00
2018-03-04T02:17:42.908Z,0.00
2018-03-04T02:18:42.893Z,0.00
2018-03-04T02:19:42.878Z,0.00
2018-03-04T02:20:42.863Z,0.00
2018-03-04T02:21:42.849Z,0.00
2018-03-04T02:22:42.834Z,0.00
2018-03-04T02:23:42.820Z,0.00
2018-03-04T02:24:42.807Z,0.00
2018-03-04T02:25:42.800Z,0.00
2018-03-04T02:26:42.779Z,0.00
2018-03-04T02:27:42.766Z,0.00
2018-03-04T02:28:42.753Z,0.00
2018-03-04T02:29:42.739Z,0.00
2018-03-04T02:30:42.728Z,0.00
2018-03-04T02:31:42.716Z,0.00
2018-03-04T02:32:42.702Z,0.00
2018-03-04T02:33:42.689Z,0.00
2018-03-04T02:34:42.677Z,0.00
2018-03-04T02:35:42.661Z,0.00
2018-03-04T02:36:42.649Z,0.00
2018-03-04T02:37:42.634Z,0.00
2018-03-04T02:38:42.624Z,0.00
2018-03-04T02:39:42.605Z,0.00
2018-03-04T02:40:42.591Z,0.00
2018-03-04T02:41:42.581Z,0.00
2018-03-04T02:42:42.575Z,0.00
2018-03-04T02:43:42.555Z,0.00
2018-03-04T02:44:42.541Z,0.00
2018-03-04T02:45:42.536Z,0.00
2018-03-04T02:46:42.519Z,0.00
2018-03-04T02:47:42.498Z,0.00
2018-03-04T02:48:42.486Z,0.00
2018-03-04T02:49:42.473Z,0.00
2018-03-04T02:50:42.459Z,0.00
2018-03-04T02:51:42.452Z,0.00
2018-03-04T02:52:42.434Z,0.00
2018-03-04T02:53:42.419Z,0.00
2018-03-04T02:54:42.404Z,0.00
2018-03-04T02:55:42.392Z,0.00
2018-03-04T02:56:42.378Z,0.00
2018-03-04T02:57:42.365Z,0.00
2018-03-04T02:58:42.351Z,0.00
2018-03-04T02:59:42.343Z,0.00
2018-03-04T03:00:42.333Z,0.00
2018-03-04T03:01:42.312Z,0.00
2018-03-04T03:02:42.298Z,0.00
2018-03-04T03:03:42.282Z,0.00
2018-03-04T03:04:42.277Z,0.00
2018-03-04T03:05:42.256Z,0.00
2018-03-04T03:06:42.243Z,0.00
2018-03-04T03:07:42.227Z,0.00
2018-03-04T03:08:42.216Z,0.00
2018-03-04T03:09:42.206Z,0.00
2018-03-04T03:10:42.189Z,0.00
2018-03-04T03:11:42.174Z,0.00
2018-03-04T03:12:42.160Z,0.00
2018-03-04T03:13:42.151Z,0.00
2018-03-04T03:14:42.132Z,0.00
2018-03-04T03:15:42.122Z,0.00
2018-03-04T03:16:42.106Z,0.00
2018-03-04T03:17:42.093Z,0.00
2018-03-04T03:18:42.086Z,0.00
2018-03-04T03:19:42.064Z,0.00
2018-03-04T03:20:42.049Z,0.00
2018-03-04T03:21:42.035Z,0.00
2018-03-04T03:22:42.021Z,0.00
2018-03-04T03:23:42.014Z,0.00
2018-03-04T03:24:41.995Z,0.00
2018-03-04T03:25:41.981Z,0.00
2018-03-04T03:26:41.964Z,0.00
2018-03-04T03:27:41.951Z,0.00
2018-03-04T03:28:41.938Z,0.00
2018-03-04T03:29:41.922Z,0.00
2018-03-04T03:30:41.909Z,0.00
2018-03-04T03:31:41.895Z,0.00
2018-03-04T03:32:41.880Z,0.00
2018-03-04T03:33:41.868Z,0.00
2018-03-04T03:34:41.849Z,0.00
2018-03-04T03:35:41.838Z,0.00
2018-03-04T03:36:41.824Z,0.00
2018-03-04T03:37:41.810Z,0.00
2018-03-04T03:38:41.794Z,0.00
2018-03-04T03:39:41.782Z,0.00
2018-03-04T03:40:41.766Z,0.00
2018-03-04T03:41:41.758Z,0.00
2018-03-04T03:42:41.743Z,0.00
2018-03-04T03:43:41.725Z,0.00
2018-03-04T03:44:41.708Z,0.00
2018-03-04T03:45:41.694Z,0.00
2018-03-04T03:46:41.678Z,0.00
2018-03-04T03:47:41.665Z,0.00
2018-03-04T03:48:41.665Z,0.00
2018-03-04T03:49:41.643Z,0.00
2018-03-04T03:50:41.626Z,0.00
2018-03-04T03:51:41.608Z,0.00
2018-03-04T03:52:41.596Z,0.00
2018-03-04T03:53:41.581Z,0.00
2018-03-04T03:54:41.572Z,0.00
2018-03-04T03:55:41.554Z,0.00
2018-03-04T03:56:41.537Z,0.00
2018-03-04T03:57:41.531Z,0.00
2018-03-04T03:58:41.513Z,0.00
2018-03-04T03:59:41.494Z,0.00
2018-03-04T04:00:41.479Z,0.00
2018-03-04T04:01:41.471Z,0.00
2018-03-04T04:02:41.449Z,0.00
2018-03-04T04:03:41.441Z,0.00
2018-03-04T04:04:41.432Z,0.00
2018-03-04T04:05:41.408Z,0.00
2018-03-04T04:06:41.391Z,0.00
2018-03-04T04:07:41.379Z,0.00
2018-03-04T04:08:41.363Z,0.00
2018-03-04T04:09:41.348Z,0.00
2018-03-04T04:10:41.333Z,0.00
2018-03-04T04:11:41.320Z,0.00
2018-03-04T04:12:41.304Z,0.00
2018-03-04T04:13:41.291Z,0.00
2018-03-04T04:14:41.287Z,0.00
2018-03-04T04:15:41.267Z,0.00
2018-03-04T04:16:41.254Z,0.00
2018-03-04T04:17:41.232Z,0.00
2018-03-04T04:18:41.223Z,0.00
2018-03-04T04:19:41.201Z,0.00
2018-03-04T04:20:41.188Z,0.00
2018-03-04T04:21:41.174Z,0.00
2018-03-04T04:22:41.158Z,0.00
2018-03-04T04:23:41.144Z,0.00
2018-03-04T04:24:41.129Z,0.00
2018-03-04T04:25:41.120Z,0.00
2018-03-04T04:26:41.100Z,0.00
2018-03-04T04:27:41.091Z,0.00
2018-03-04T04:28:41.071Z,0.00
2018-03-04T04:29:41.057Z,0.00
2018-03-04T04:30:41.040Z,0.00
2018-03-04T04:31:41.025Z,0.00
2018-03-04T04:32:41.014Z,0.00
2018-03-04T04:33:40.995Z,0.00
2018-03-04T04:34:40.980Z,0.00
2018-03-04T04:35:40.969Z,0.00
2018-03-04T04:36:40.956Z,0.00
2018-03-04T04:37:40.947Z,0.00
2018-03-04T04:38:40.922Z,0.00
2018-03-04T04:39:40.933Z,0.00
2018-03-04T04:40:40.893Z,0.00
2018-03-04T04:41:40.876Z,0.00
2018-03-04T04:42:40.862Z,0.00
2018-03-04T04:43:40.854Z,0.00
2018-03-04T04:44:40.833Z,0.00
2018-03-04T04:45:40.824Z,0.00
2018-03-04T04:46:40.802Z,0.00
2018-03-04T04:47:40.794Z,0.00
2018-03-04T04:48:40.774Z,0.00
2018-03-04T04:49:40.760Z,0.00
2018-03-04T04:50:40.750Z,0.00
2018-03-04T04:51:40.730Z,0.00
2018-03-04T04:52:40.717Z,0.00
2018-03-04T04:53:40.701Z,0.00
2018-03-04T04:54:40.692Z,0.00
2018-03-04T04:55:40.676Z,0.00
2018-03-04T04:56:40.660Z,0.00
2018-03-04T04:57:40.646Z,0.00
2018-03-04T04:58:40.626Z,0.00
2018-03-04T04:59:40.619Z,0.00
2018-03-04T05:00:40.602Z,0.00
2018-03-04T05:01:40.587Z,0.00
2018-03-04T05:02:40.566Z,0.00
2018-03-04T05:03:40.552Z,0.00
2018-03-04T05:04:40.542Z,0.00
2018-03-04T05:05:40.523Z,0.00
2018-03-04T05:06:40.514Z,0.00
2018-03-04T05:07:40.495Z,0.00
2018-03-04T05:08:40.479Z,0.00
2018-03-04T05:09:40.463Z,0.00
2018-03-04T05:10:40.451Z,0.00
2018-03-04T05:11:40.444Z,0.00
2018-03-04T05:12:40.422Z,0.00
2018-03-04T05:13:40.404Z,0.00
2018-03-04T05:14:40.388Z,0.00
2018-03-04T05:15:40.380Z,0.00
2018-03-04T05:16:40.365Z,0.00
2018-03-04T05:17:40.344Z,0.00
2018-03-04T05:18:40.332Z,0.00
2018-03-04T05:19:40.314Z,0.00
2018-03-04T05:20:40.299Z,0.00
2018-03-04T05:21:40.284Z,0.00
2018-03-04T05:22:40.275Z,0.00
2018-03-04T05:23:40.255Z,0.00
2018-03-04T05:24:40.239Z,0.00
2018-03-04T05:25:40.226Z,0.00
2018-03-04T05:26:40.219Z,0.00
2018-03-04T05:27:40.202Z,0.00
2018-03-04T05:28:40.182Z,0.00
2018-03-04T05:29:40.173Z,0.00
2018-03-04T05:30:40.154Z,0.00
2018-03-04T05:31:40.137Z,0.00
2018-03-04T05:32:40.128Z,0.00
2018-03-04T05:33:40.108Z,0.00
2018-03-04T05:34:40.093Z,0.00
2018-03-04T05:35:40.084Z,0.00
2018-03-04T05:36:40.069Z,0.00
2018-03-04T05:37:40.054Z,0.00
2018-03-04T05:38:40.051Z,0.00
2018-03-04T05:39:40.018Z,0.00
2018-03-04T05:40:40.004Z,0.00
2018-03-04T05:41:39.995Z,4.00
2018-03-04T05:42:39.975Z,0.00
2018-03-04T05:43:39.960Z,0.00
2018-03-04T05:44:39.954Z,4.00
2018-03-04T05:45:39.932Z,4.00
2018-03-04T05:46:39.914Z,4.00
2018-03-04T05:47:39.905Z,4.00
2018-03-04T05:48:39.890Z,4.00
2018-03-04T05:49:39.872Z,4.00
2018-03-04T05:50:39.856Z,8.00
2018-03-04T05:51:39.844Z,8.00
2018-03-04T05:52:39.827Z,12.00
2018-03-04T05:53:39.816Z,8.00
2018-03-04T05:54:39.796Z,12.00
2018-03-04T05:55:39.782Z,12.00
2018-03-04T05:56:39.772Z,16.00
2018-03-04T05:57:39.752Z,16.00
2018-03-04T05:58:39.742Z,20.00
2018-03-04T05:59:39.729Z,20.00
2018-03-04T06:00:39.709Z,20.00
2018-03-04T06:01:39.698Z,24.00
2018-03-04T06:02:39.678Z,24.00
2018-03-04T06:03:39.667Z,28.00
2018-03-04T06:04:39.649Z,28.00
2018-03-04T06:05:39.639Z,32.00
2018-03-04T06:06:39.622Z,32.00
2018-03-04T06:07:39.605Z,36.00
2018-03-04T06:08:39.593Z,44.00
2018-03-04T06:09:39.573Z,44.00
2018-03-04T06:10:39.559Z,48.00
2018-03-04T06:11:39.542Z,48.00
2018-03-04T06:12:39.530Z,52.00
2018-03-04T06:13:39.513Z,56.00
2018-03-04T06:14:39.508Z,60.00
2018-03-04T06:15:39.483Z,64.00
2018-03-04T06:16:39.469Z,72.00
2018-03-04T06:17:39.459Z,76.00
2018-03-04T06:18:39.445Z,80.00
2018-03-04T06:19:39.430Z,88.00
2018-03-04T06:20:39.411Z,96.00
2018-03-04T06:21:39.393Z,104.00
2018-03-04T06:22:39.381Z,112.00
2018-03-04T06:23:39.365Z,116.00
2018-03-04T06:24:39.348Z,124.00
2018-03-04T06:25:39.341Z,128.00
2018-03-04T06:26:39.317Z,132.00
2018-03-04T06:27:39.306Z,140.00
2018-03-04T06:28:39.291Z,144.00
2018-03-04T06:29:39.276Z,140.00
2018-03-04T06:30:39.259Z,144.00
2018-03-04T06:31:39.250Z,144.00
2018-03-04T06:32:39.231Z,148.00
2018-03-04T06:33:39.253Z,168.00
2018-03-04T06:34:39.232Z,184.00
2018-03-04T06:35:39.195Z,204.00
2018-03-04T06:36:39.187Z,216.00
2018-03-04T06:37:39.166Z,236.00
2018-03-04T06:38:39.140Z,244.00
2018-03-04T06:39:39.137Z,256.00
2018-03-04T06:40:39.123Z,264.00
2018-03-04T06:41:39.100Z,284.00
2018-03-04T06:42:39.095Z,296.00
2018-03-04T06:43:39.073Z,312.00
2018-03-04T06:44:39.059Z,312.00
2018-03-04T06:45:39.050Z,292.00
2018-03-04T06:46:39.037Z,264.00
2018-03-04T06:47:39.012Z,260.00
2018-03-04T06:48:38.989Z,284.00
2018-03-04T06:49:38.980Z,320.00
2018-03-04T06:50:38.960Z,380.00
2018-03-04T06:51:38.944Z,492.00
2018-03-04T06:52:38.936Z,504.00
2018-03-04T06:53:38.916Z,428.00
2018-03-04T06:54:38.898Z,412.00
2018-03-04T06:55:38.883Z,444.00
2018-03-04T06:56:38.868Z,444.00
2018-03-04T06:57:38.861Z,404.00
2018-03-04T06:58:38.844Z,432.00
2018-03-04T06:59:38.830Z,544.00
2018-03-04T07:00:38.811Z,448.00
2018-03-04T07:01:38.795Z,352.00
2018-03-04T07:02:38.778Z,504.00
2018-03-04T07:03:38.764Z,480.00
2018-03-04T07:04:38.756Z,304.00
2018-03-04T07:05:38.736Z,280.00
2018-03-04T07:06:38.726Z,288.00
2018-03-04T07:07:38.706Z,300.00
2018-03-04T07:08:38.690Z,268.00
2018-03-04T07:09:38.675Z,256.00
2018-03-04T07:10:38.664Z,260.00
2018-03-04T07:11:38.651Z,292.00
2018-03-04T07:12:38.630Z,352.00
2018-03-04T07:13:38.613Z,408.00
2018-03-04T07:14:38.602Z,468.00
2018-03-04T07:15:38.586Z,520.00
2018-03-04T07:16:38.574Z,560.00
2018-03-04T07:17:38.553Z,584.00
2018-03-04T07:18:38.536Z,584.00
2018-03-04T07:19:38.525Z,604.00
2018-03-04T07:20:38.507Z,632.00
2018-03-04T07:21:38.492Z,664.00
2018-03-04T07:22:38.476Z,704.00
2018-03-04T07:23:38.460Z,756.00
2018-03-04T07:24:38.450Z,772.00
2018-03-04T07:25:38.432Z,780.00
2018-03-04T07:26:38.419Z,772.00
2018-03-04T07:27:38.401Z,780.00
2018-03-04T07:28:38.384Z,760.00
2018-03-04T07:29:38.418Z,728.00
2018-03-04T07:30:38.351Z,732.00
2018-03-04T07:31:38.341Z,612.00
2018-03-04T07:32:38.325Z,756.00
2018-03-04T07:33:38.305Z,800.00
2018-03-04T07:34:38.290Z,820.00
2018-03-04T07:35:38.275Z,776.00
2018-03-04T07:36:38.259Z,768.00
2018-03-04T07:37:38.248Z,800.00
2018-03-04T07:38:38.230Z,828.00
2018-03-04T07:39:38.213Z,888.00
2018-03-04T07:40:38.201Z,924.00
2018-03-04T07:41:38.189Z,956.00
2018-03-04T07:42:38.174Z,980.00
2018-03-04T07:43:38.152Z,1016.00
2018-03-04T07:44:38.137Z,1060.00
2018-03-04T07:45:38.131Z,1036.00
2018-03-04T07:46:38.112Z,1060.00
2018-03-04T07:47:38.092Z,1132.00
2018-03-04T07:48:38.075Z,1220.00
2018-03-04T07:49:38.066Z,1252.00
2018-03-04T07:50:38.046Z,1292.00
2018-03-04T07:51:38.031Z,1340.00
2018-03-04T07:52:38.016Z,1396.00
2018-03-04T07:53:38.001Z,1404.00
2018-03-04T07:54:37.991Z,1444.00
2018-03-04T07:55:37.969Z,1500.00
2018-03-04T07:56:37.957Z,1552.00
2018-03-04T07:57:37.945Z,1612.00
2018-03-04T07:58:37.931Z,1640.00
2018-03-04T07:59:37.915Z,1676.00
2018-03-04T08:00:37.899Z,1724.00
2018-03-04T08:01:37.884Z,1592.00
2018-03-04T08:02:37.867Z,1460.00
2018-03-04T08:03:37.858Z,1432.00
2018-03-04T08:04:37.842Z,1424.00
2018-03-04T08:05:37.825Z,1440.00
2018-03-04T08:06:37.815Z,1480.00
2018-03-04T08:07:37.804Z,1352.00
2018-03-04T08:08:37.787Z,1276.00
2018-03-04T08:09:37.767Z,1184.00
2018-03-04T08:10:37.756Z,1212.00
2018-03-04T08:11:37.738Z,1152.00
2018-03-04T08:12:37.727Z,932.00
2018-03-04T08:13:37.717Z,868.00
2018-03-04T08:14:37.697Z,884.00
2018-03-04T08:15:37.685Z,928.00
2018-03-04T08:16:37.669Z,1212.00
2018-03-04T08:17:37.687Z,1144.00
2018-03-04T08:18:37.646Z,1104.00
2018-03-04T08:19:37.645Z,1424.00
2018-03-04T08:20:37.612Z,1288.00
2018-03-04T08:21:37.600Z,1488.00
2018-03-04T08:22:37.585Z,1636.00
2018-03-04T08:23:37.571Z,1600.00
2018-03-04T08:24:37.559Z,1672.00
2018-03-04T08:25:37.545Z,1684.00
2018-03-04T08:26:37.532Z,1788.00
2018-03-04T08:27:37.522Z,1820.00
2018-03-04T08:28:37.510Z,1828.00
2018-03-04T08:29:37.492Z,2024.00
2018-03-04T08:30:37.476Z,2140.00
2018-03-04T08:31:37.469Z,2012.00
2018-03-04T08:32:37.448Z,1728.00
2018-03-04T08:33:37.445Z,1908.00
2018-03-04T08:34:37.430Z,2044.00
2018-03-04T08:35:37.413Z,2084.00
2018-03-04T08:36:37.396Z,1808.00
2018-03-04T08:37:37.384Z,2268.00
2018-03-04T08:38:37.376Z,2204.00
2018-03-04T08:39:37.359Z,2164.00
2018-03-04T08:40:37.348Z,2096.00
2018-03-04T08:41:37.331Z,2068.00
2018-03-04T08:42:37.316Z,2024.00
2018-03-04T08:43:37.304Z,2068.00
2018-03-04T08:44:37.292Z,2088.00
2018-03-04T08:45:37.282Z,2060.00
2018-03-04T08:46:37.270Z,2072.00
2018-03-04T08:47:37.257Z,2052.00
2018-03-04T08:48:37.241Z,1956.00
2018-03-04T08:49:37.227Z,1968.00
2018-03-04T08:50:37.216Z,1920.00
2018-03-04T08:51:37.200Z,1872.00
2018-03-04T08:52:37.184Z,1788.00
2018-03-04T08:53:37.172Z,1772.00
2018-03-04T08:54:37.157Z,1804.00
2018-03-04T08:55:37.150Z,1824.00
2018-03-04T08:56:37.134Z,1868.00
2018-03-04T08:57:37.121Z,1928.00
2018-03-04T08:58:37.107Z,1984.00
2018-03-04T08:59:37.097Z,2008.00
2018-03-04T09:00:37.084Z,2036.00
2018-03-04T09:01:37.066Z,2020.00
2018-03-04T09:02:37.053Z,2104.00
2018-03-04T09:03:37.040Z,2256.00
2018-03-04T09:04:37.025Z,2332.00
2018-03-04T09:05:37.019Z,2368.00
2018-03-04T09:06:36.999Z,2348.00
2018-03-04T09:07:36.986Z,2332.00
2018-03-04T09:08:37.013Z,2300.00
2018-03-04T09:09:36.962Z,2272.00
2018-03-04T09:10:36.950Z,2208.00
2018-03-04T09:11:36.945Z,2164.00
2018-03-04T09:12:36.924Z,2188.00
2018-03-04T09:13:36.910Z,2168.00
2018-03-04T09:14:36.897Z,2148.00
2018-03-04T09:15:36.892Z,1924.00
2018-03-04T09:16:36.874Z,1708.00
2018-03-04T09:17:36.860Z,1912.00
2018-03-04T09:18:36.849Z,1972.00
2018-03-04T09:19:36.888Z,2012.00
2018-03-04T09:20:36.825Z,2168.00
2018-03-04T09:21:36.812Z,2212.00
2018-03-04T09:22:36.799Z,2120.00
2018-03-04T09:23:36.792Z,1816.00
2018-03-04T09:24:36.773Z,1704.00
2018-03-04T09:25:36.814Z,2096.00
2018-03-04T09:26:36.756Z,2260.00
2018-03-04T09:27:36.740Z,2412.00
2018-03-04T09:28:36.764Z,2412.00
2018-03-04T09:29:36.716Z,2488.00
2018-03-04T09:30:36.711Z,2488.00
2018-03-04T09:31:36.692Z,2548.00
2018-03-04T09:32:36.684Z,2640.00
2018-03-04T09:33:36.667Z,2640.00
2018-03-04T09:34:36.653Z,2636.00
2018-03-04T09:35:36.642Z,2652.00
2018-03-04T09:36:36.632Z,2580.00
2018-03-04T09:37:36.622Z,2568.00
2018-03-04T09:38:36.606Z,2696.00
2018-03-04T09:39:36.599Z,2804.00
2018-03-04T09:40:36.583Z,2880.00
2018-03-04T09:41:36.571Z,2816.00
2018-03-04T09:42:36.564Z,2676.00
2018-03-04T09:43:36.551Z,2512.00
2018-03-04T09:44:36.541Z,2428.00
2018-03-04T09:45:36.523Z,2424.00
2018-03-04T09:46:36.509Z,2432.00
2018-03-04T09:47:36.497Z,2512.00
2018-03-04T09:48:36.492Z,2792.00
2018-03-04T09:49:36.475Z,2964.00
2018-03-04T09:50:36.469Z,2960.00
2018-03-04T09:51:36.457Z,3028.00
2018-03-04T09:52:36.441Z,2996.00
2018-03-04T09:53:36.433Z,2860.00
2018-03-04T09:54:36.422Z,2840.00
2018-03-04T09:55:36.405Z,2972.00
2018-03-04T09:56:36.393Z,2912.00
2018-03-04T09:57:36.416Z,3000.00
2018-03-04T09:58:36.392Z,3032.00
2018-03-04T09:59:36.369Z,3068.00
2018-03-04T10:00:36.354Z,3076.00
2018-03-04T10:01:36.345Z,3084.00
2018-03-04T10:02:36.328Z,3024.00
2018-03-04T10:03:36.315Z,3084.00
2018-03-04T10:04:36.302Z,3116.00
2018-03-04T10:05:36.293Z,3076.00
2018-03-04T10:06:36.288Z,3056.00
2018-03-04T10:07:36.269Z,2992.00
2018-03-04T10:08:36.257Z,3008.00
2018-03-04T10:09:36.261Z,2968.00
2018-03-04T10:10:36.235Z,2872.00
2018-03-04T10:11:36.225Z,2904.00
2018-03-04T10:12:36.219Z,2816.00
2018-03-04T10:13:36.203Z,2904.00
2018-03-04T10:14:36.193Z,3000.00
2018-03-04T10:15:36.184Z,3064.00
2018-03-04T10:16:36.170Z,3072.00
2018-03-04T10:17:36.160Z,2932.00
2018-03-04T10:18:36.156Z,2980.00
2018-03-04T10:19:36.144Z,3036.00
2018-03-04T10:20:36.130Z,3020.00
2018-03-04T10:21:36.120Z,3012.00
2018-03-04T10:22:36.109Z,3004.00
2018-03-04T10:23:36.098Z,2940.00
2018-03-04T10:24:36.089Z,2964.00
2018-03-04T10:25:36.079Z,2848.00
2018-03-04T10:26:36.069Z,2728.00
2018-03-04T10:27:36.058Z,2704.00
2018-03-04T10:28:36.049Z,2704.00
2018-03-04T10:29:36.037Z,2716.00
2018-03-04T10:30:36.030Z,2716.00
2018-03-04T10:31:36.019Z,2672.00
2018-03-04T10:32:36.013Z,2684.00
2018-03-04T10:33:36.000Z,2684.00
2018-03-04T10:34:35.987Z,2616.00
2018-03-04T10:35:35.976Z,2612.00
2018-03-04T10:36:35.966Z,2648.00
2018-03-04T10:37:35.965Z,2596.00
2018-03-04T10:38:35.953Z,2528.00
2018-03-04T10:39:35.942Z,2500.00
2018-03-04T10:40:35.925Z,2476.00
2018-03-04T10:41:35.918Z,2440.00
2018-03-04T10:42:35.908Z,2468.00
2018-03-04T10:43:35.903Z,2436.00
2018-03-04T10:44:35.887Z,2276.00
2018-03-04T10:45:35.879Z,2236.00
2018-03-04T10:46:35.866Z,2212.00
2018-03-04T10:47:35.858Z,2164.00
2018-03-04T10:48:35.894Z,2068.00
2018-03-04T10:49:35.840Z,1872.00
2018-03-04T10:50:35.832Z,1884.00
2018-03-04T10:51:35.820Z,2000.00
2018-03-04T10:52:35.809Z,2012.00
2018-03-04T10:53:35.804Z,2076.00
2018-03-04T10:54:35.787Z,2172.00
2018-03-04T10:55:35.780Z,2244.00
2018-03-04T10:56:35.777Z,2380.00
2018-03-04T10:57:35.766Z,2544.00
2018-03-04T10:58:35.751Z,2712.00
2018-03-04T10:59:35.742Z,2728.00
2018-03-04T11:00:35.730Z,2780.00
2018-03-04T11:01:35.724Z,2680.00
2018-03-04T11:02:35.709Z,2608.00
2018-03-04T11:03:35.699Z,2324.00
2018-03-04T11:04:35.691Z,2024.00
2018-03-04T11:05:35.681Z,1844.00
2018-03-04T11:06:35.670Z,1844.00
2018-03-04T11:07:35.668Z,1808.00
2018-03-04T11:08:35.663Z,1892.00
2018-03-04T11:09:35.648Z,2108.00
2018-03-04T11:10:35.631Z,2320.00
2018-03-04T11:11:35.639Z,2432.00
2018-03-04T11:12:35.616Z,2548.00
2018-03-04T11:13:35.605Z,2540.00
2018-03-04T11:14:35.593Z,2528.00
2018-03-04T11:15:35.581Z,2508.00
2018-03-04T11:16:35.572Z,2508.00
2018-03-04T11:17:35.565Z,2576.00
2018-03-04T11:18:35.561Z,2596.00
2018-03-04T11:19:35.545Z,2668.00
2018-03-04T11:20:35.534Z,2712.00
2018-03-04T11:21:35.527Z,2596.00
2018-03-04T11:22:35.513Z,2472.00
2018-03-04T11:23:35.508Z,2424.00
2018-03-04T11:24:35.498Z,2536.00
2018-03-04T11:25:35.484Z,2528.00
2018-03-04T11:26:35.472Z,2732.00
2018-03-04T11:27:35.461Z,2940.00
2018-03-04T11:28:35.466Z,3056.00
2018-03-04T11:29:35.447Z,3100.00
2018-03-04T11:30:35.431Z,3136.00
2018-03-04T11:31:35.420Z,2912.00
2018-03-04T11:32:35.417Z,2956.00
2018-03-04T11:33:35.405Z,3164.00
2018-03-04T11:34:35.392Z,3072.00
2018-03-04T11:35:35.383Z,3228.00
2018-03-04T11:36:35.370Z,3232.00
2018-03-04T11:37:35.362Z,3224.00
2018-03-04T11:38:35.351Z,3192.00
2018-03-04T11:39:35.345Z,3136.00
2018-03-04T11:40:35.332Z,3120.00
2018-03-04T11:41:35.320Z,3128.00
2018-03-04T11:42:35.317Z,3108.00
2018-03-04T11:43:35.302Z,2740.00
2018-03-04T11:44:35.297Z,2632.00
2018-03-04T11:45:35.283Z,2620.00
2018-03-04T11:46:35.275Z,2632.00
2018-03-04T11:47:35.262Z,2672.00
2018-03-04T11:48:35.252Z,2748.00
2018-03-04T11:49:35.246Z,2816.00
2018-03-04T11:50:35.239Z,2832.00
2018-03-04T11:51:35.228Z,2960.00
2018-03-04T11:52:35.218Z,3056.00
2018-03-04T11:53:35.254Z,2912.00
2018-03-04T11:54:35.201Z,2964.00
2018-03-04T11:55:35.184Z,2904.00
2018-03-04T11:56:35.177Z,2868.00
2018-03-04T11:57:35.173Z,2764.00
2018-03-04T11:58:35.156Z,2676.00
2018-03-04T11:59:35.147Z,2524.00
2018-03-04T12:00:35.139Z,2636.00
2018-03-04T12:01:35.134Z,2472.00
2018-03-04T12:02:35.123Z,2560.00
2018-03-04T12:03:35.119Z,2476.00
2018-03-04T12:04:35.104Z,2480.00
2018-03-04T12:05:35.094Z,2440.00
2018-03-04T12:06:35.084Z,2384.00
2018-03-04T12:07:35.076Z,2328.00
2018-03-04T12:08:35.066Z,2312.00
2018-03-04T12:09:35.086Z,2288.00
2018-03-04T12:10:35.050Z,2280.00
2018-03-04T12:11:35.040Z,2256.00
2018-03-04T12:12:35.035Z,2244.00
2018-03-04T12:13:35.023Z,2248.00
2018-03-04T12:14:35.013Z,2260.00
2018-03-04T12:15:35.012Z,2276.00
2018-03-04T12:16:35.005Z,2316.00
2018-03-04T12:17:34.990Z,2348.00
2018-03-04T12:18:34.978Z,2384.00
2018-03-04T12:19:34.971Z,2408.00
2018-03-04T12:20:34.969Z,2448.00
2018-03-04T12:21:34.955Z,2460.00
2018-03-04T12:22:34.946Z,2460.00
2018-03-04T12:23:34.939Z,2456.00
2018-03-04T12:24:34.929Z,2436.00
2018-03-04T12:25:34.922Z,2416.00
2018-03-04T12:26:34.912Z,2388.00
2018-03-04T12:27:34.905Z,2356.00
2018-03-04T12:28:34.895Z,2328.00
2018-03-04T12:29:34.888Z,2304.00
2018-03-04T12:30:34.884Z,2292.00
2018-03-04T12:31:35.021Z,2280.00
2018-03-04T12:32:34.862Z,2252.00
2018-03-04T12:33:34.860Z,2232.00
2018-03-04T12:34:34.852Z,2224.00
2018-03-04T12:35:34.837Z,2208.00
2018-03-04T12:36:34.835Z,2200.00
2018-03-04T12:37:34.821Z,2180.00
2018-03-04T12:38:34.812Z,2168.00
2018-03-04T12:39:34.807Z,2160.00
2018-03-04T12:40:34.800Z,2128.00
2018-03-04T12:41:34.799Z,2144.00
2018-03-04T12:42:34.779Z,2144.00